sensor_id;sensor_type;location;lat;lon;timestamp;P1;durP1;ratioP1;P2;durP2;ratioP2
18387;SDS011;9320;50.256;19.026;2022-09-03T00:00:52;12.77;;;5.03;;
18387;SDS011;9320;50.256;19.026;2022-09-03T00:03:23;7.87;;;4.43;;
18387;SDS011;9320;50.256;19.026;2022-09-03T00:06:06;7.70;;;4.50;;
18387;SDS011;9320;50.256;19.026;2022-09-03T00:08:41;7.07;;;4.80;;
18387;SDS011;9320;50.256;19.026;2022-09-03T00:11:13;7.68;;;4.70;;
18387;SDS011;9320;50.256;19.026;2022-09-03T00:13:49;6.03;;;4.57;;
18387;SDS011;9320;50.256;19.026;2022-09-03T00:16:21;7.80;;;5.07;;
18387;SDS011;9320;50.256;19.026;2022-09-03T00:18:53;10.77;;;5.20;;
18387;SDS011;9320;50.256;19.026;2022-09-03T00:21:31;11.27;;;5.30;;
18387;SDS011;9320;50.256;19.026;2022-09-03T00:24:05;13.57;;;5.37;;
18387;SDS011;9320;50.256;19.026;2022-09-03T00:26:39;12.80;;;5.20;;
18387;SDS011;9320;50.256;19.026;2022-09-03T00:29:12;8.37;;;4.50;;
18387;SDS011;9320;50.256;19.026;2022-09-03T00:31:44;10.00;;;5.00;;
18387;SDS011;9320;50.256;19.026;2022-09-03T00:34:16;7.70;;;4.80;;
18387;SDS011;9320;50.256;19.026;2022-09-03T00:36:50;7.60;;;4.73;;
18387;SDS011;9320;50.256;19.026;2022-09-03T00:39:19;7.30;;;4.60;;
18387;SDS011;9320;50.256;19.026;2022-09-03T00:41:53;9.97;;;4.70;;
18387;SDS011;9320;50.256;19.026;2022-09-03T00:44:39;13.13;;;4.50;;
18387;SDS011;9320;50.256;19.026;2022-09-03T00:47:26;9.07;;;4.70;;
18387;SDS011;9320;50.256;19.026;2022-09-03T00:50:05;7.33;;;4.60;;
18387;SDS011;9320;50.256;19.026;2022-09-03T00:52:45;9.17;;;4.50;;
18387;SDS011;9320;50.256;19.026;2022-09-03T00:55:25;10.60;;;4.70;;
18387;SDS011;9320;50.256;19.026;2022-09-03T00:58:05;7.80;;;4.50;;
18387;SDS011;9320;50.256;19.026;2022-09-03T01:00:43;7.47;;;4.53;;
18387;SDS011;9320;50.256;19.026;2022-09-03T01:03:13;9.27;;;4.60;;
18387;SDS011;9320;50.256;19.026;2022-09-03T01:05:55;8.33;;;4.40;;
18387;SDS011;9320;50.256;19.026;2022-09-03T01:08:42;8.03;;;4.70;;
18387;SDS011;9320;50.256;19.026;2022-09-03T01:11:19;9.05;;;4.72;;
18387;SDS011;9320;50.256;19.026;2022-09-03T01:13:55;9.93;;;5.00;;
18387;SDS011;9320;50.256;19.026;2022-09-03T01:16:30;10.05;;;5.10;;
18387;SDS011;9320;50.256;19.026;2022-09-03T01:19:05;9.75;;;5.18;;
18387;SDS011;9320;50.256;19.026;2022-09-03T01:21:48;11.47;;;5.00;;
18387;SDS011;9320;50.256;19.026;2022-09-03T01:24:38;7.33;;;4.53;;
18387;SDS011;9320;50.256;19.026;2022-09-03T01:27:29;11.50;;;4.90;;
18387;SDS011;9320;50.256;19.026;2022-09-03T01:30:07;6.87;;;4.77;;
18387;SDS011;9320;50.256;19.026;2022-09-03T01:32:44;8.90;;;4.83;;
18387;SDS011;9320;50.256;19.026;2022-09-03T01:35:21;13.83;;;4.90;;
18387;SDS011;9320;50.256;19.026;2022-09-03T01:37:57;7.90;;;5.00;;
18387;SDS011;9320;50.256;19.026;2022-09-03T01:40:37;5.87;;;4.67;;
18387;SDS011;9320;50.256;19.026;2022-09-03T01:43:26;8.90;;;4.60;;
18387;SDS011;9320;50.256;19.026;2022-09-03T01:46:09;7.70;;;4.70;;
18387;SDS011;9320;50.256;19.026;2022-09-03T01:48:48;6.00;;;4.50;;
18387;SDS011;9320;50.256;19.026;2022-09-03T01:51:26;6.27;;;4.60;;
18387;SDS011;9320;50.256;19.026;2022-09-03T01:54:02;7.23;;;4.50;;
18387;SDS011;9320;50.256;19.026;2022-09-03T01:56:54;6.37;;;4.80;;
18387;SDS011;9320;50.256;19.026;2022-09-03T01:59:56;7.10;;;4.43;;
18387;SDS011;9320;50.256;19.026;2022-09-03T02:02:29;8.03;;;4.43;;
18387;SDS011;9320;50.256;19.026;2022-09-03T02:04:59;9.27;;;4.90;;
18387;SDS011;9320;50.256;19.026;2022-09-03T02:07:29;9.17;;;4.30;;
18387;SDS011;9320;50.256;19.026;2022-09-03T02:10:00;6.67;;;4.20;;
18387;SDS011;9320;50.256;19.026;2022-09-03T02:12:30;8.50;;;4.97;;
18387;SDS011;9320;50.256;19.026;2022-09-03T02:15:00;7.20;;;4.57;;
18387;SDS011;9320;50.256;19.026;2022-09-03T02:17:33;9.30;;;4.63;;
18387;SDS011;9320;50.256;19.026;2022-09-03T02:20:03;5.50;;;4.43;;
18387;SDS011;9320;50.256;19.026;2022-09-03T02:22:34;6.67;;;4.93;;
18387;SDS011;9320;50.256;19.026;2022-09-03T02:25:02;9.53;;;4.33;;
18387;SDS011;9320;50.256;19.026;2022-09-03T02:27:30;6.70;;;4.87;;
18387;SDS011;9320;50.256;19.026;2022-09-03T02:29:59;8.27;;;4.30;;
18387;SDS011;9320;50.256;19.026;2022-09-03T02:32:27;9.33;;;5.13;;
18387;SDS011;9320;50.256;19.026;2022-09-03T02:34:56;7.33;;;4.73;;
18387;SDS011;9320;50.256;19.026;2022-09-03T02:37:25;6.10;;;4.67;;
18387;SDS011;9320;50.256;19.026;2022-09-03T02:39:53;5.90;;;4.50;;
18387;SDS011;9320;50.256;19.026;2022-09-03T02:42:21;7.13;;;4.80;;
18387;SDS011;9320;50.256;19.026;2022-09-03T02:44:50;6.50;;;4.70;;
18387;SDS011;9320;50.256;19.026;2022-09-03T02:47:21;9.90;;;4.60;;
18387;SDS011;9320;50.256;19.026;2022-09-03T02:49:51;9.33;;;4.77;;
18387;SDS011;9320;50.256;19.026;2022-09-03T02:52:21;10.23;;;4.60;;
18387;SDS011;9320;50.256;19.026;2022-09-03T02:54:49;4.97;;;4.47;;
18387;SDS011;9320;50.256;19.026;2022-09-03T02:57:17;8.33;;;4.53;;
18387;SDS011;9320;50.256;19.026;2022-09-03T02:59:52;6.80;;;4.30;;
18387;SDS011;9320;50.256;19.026;2022-09-03T03:02:20;6.97;;;4.80;;
18387;SDS011;9320;50.256;19.026;2022-09-03T03:04:48;6.82;;;4.78;;
18387;SDS011;9320;50.256;19.026;2022-09-03T03:07:17;6.23;;;4.70;;
18387;SDS011;9320;50.256;19.026;2022-09-03T03:09:46;9.07;;;4.80;;
18387;SDS011;9320;50.256;19.026;2022-09-03T03:12:14;7.63;;;4.90;;
18387;SDS011;9320;50.256;19.026;2022-09-03T03:14:42;5.97;;;4.60;;
18387;SDS011;9320;50.256;19.026;2022-09-03T03:17:10;14.40;;;5.38;;
18387;SDS011;9320;50.256;19.026;2022-09-03T03:19:38;8.27;;;4.70;;
18387;SDS011;9320;50.256;19.026;2022-09-03T03:22:06;7.10;;;4.70;;
18387;SDS011;9320;50.256;19.026;2022-09-03T03:24:34;6.65;;;4.60;;
18387;SDS011;9320;50.256;19.026;2022-09-03T03:27:04;8.00;;;4.87;;
18387;SDS011;9320;50.256;19.026;2022-09-03T03:29:35;6.50;;;4.90;;
18387;SDS011;9320;50.256;19.026;2022-09-03T03:32:04;7.80;;;5.10;;
18387;SDS011;9320;50.256;19.026;2022-09-03T03:34:32;9.45;;;5.07;;
18387;SDS011;9320;50.256;19.026;2022-09-03T03:37:00;7.70;;;5.03;;
18387;SDS011;9320;50.256;19.026;2022-09-03T03:39:29;10.97;;;5.87;;
18387;SDS011;9320;50.256;19.026;2022-09-03T03:41:57;7.73;;;5.17;;
18387;SDS011;9320;50.256;19.026;2022-09-03T03:44:27;10.27;;;5.87;;
18387;SDS011;9320;50.256;19.026;2022-09-03T03:46:55;7.10;;;5.30;;
18387;SDS011;9320;50.256;19.026;2022-09-03T03:49:23;12.93;;;5.63;;
18387;SDS011;9320;50.256;19.026;2022-09-03T03:51:51;8.00;;;5.53;;
18387;SDS011;9320;50.256;19.026;2022-09-03T03:54:19;9.63;;;4.88;;
18387;SDS011;9320;50.256;19.026;2022-09-03T03:56:47;9.80;;;5.03;;
18387;SDS011;9320;50.256;19.026;2022-09-03T03:59:21;8.13;;;5.10;;
18387;SDS011;9320;50.256;19.026;2022-09-03T04:01:50;9.40;;;5.23;;
18387;SDS011;9320;50.256;19.026;2022-09-03T04:04:21;10.03;;;5.27;;
18387;SDS011;9320;50.256;19.026;2022-09-03T04:06:49;8.97;;;5.50;;
18387;SDS011;9320;50.256;19.026;2022-09-03T04:09:17;9.23;;;5.47;;
18387;SDS011;9320;50.256;19.026;2022-09-03T04:11:45;9.93;;;5.50;;
18387;SDS011;9320;50.256;19.026;2022-09-03T04:14:13;12.60;;;5.53;;
18387;SDS011;9320;50.256;19.026;2022-09-03T04:16:43;6.53;;;5.30;;
18387;SDS011;9320;50.256;19.026;2022-09-03T04:19:13;8.90;;;5.50;;
18387;SDS011;9320;50.256;19.026;2022-09-03T04:21:41;13.23;;;5.70;;
18387;SDS011;9320;50.256;19.026;2022-09-03T04:24:09;9.53;;;5.97;;
18387;SDS011;9320;50.256;19.026;2022-09-03T04:26:38;9.63;;;5.90;;
18387;SDS011;9320;50.256;19.026;2022-09-03T04:29:07;9.87;;;5.90;;
18387;SDS011;9320;50.256;19.026;2022-09-03T04:31:36;9.90;;;5.90;;
18387;SDS011;9320;50.256;19.026;2022-09-03T04:34:27;11.37;;;5.70;;
18387;SDS011;9320;50.256;19.026;2022-09-03T04:36:55;11.93;;;5.80;;
18387;SDS011;9320;50.256;19.026;2022-09-03T04:39:24;12.10;;;6.13;;
18387;SDS011;9320;50.256;19.026;2022-09-03T04:41:53;22.63;;;6.70;;
18387;SDS011;9320;50.256;19.026;2022-09-03T04:44:21;10.30;;;5.77;;
18387;SDS011;9320;50.256;19.026;2022-09-03T04:46:49;10.50;;;6.10;;
18387;SDS011;9320;50.256;19.026;2022-09-03T04:49:18;10.17;;;5.67;;
18387;SDS011;9320;50.256;19.026;2022-09-03T04:51:48;15.20;;;6.07;;
18387;SDS011;9320;50.256;19.026;2022-09-03T04:54:16;13.57;;;6.30;;
18387;SDS011;9320;50.256;19.026;2022-09-03T04:56:44;14.13;;;6.17;;
18387;SDS011;9320;50.256;19.026;2022-09-03T04:59:13;11.93;;;6.30;;
18387;SDS011;9320;50.256;19.026;2022-09-03T05:01:42;16.83;;;6.17;;
18387;SDS011;9320;50.256;19.026;2022-09-03T05:04:10;12.80;;;6.43;;
18387;SDS011;9320;50.256;19.026;2022-09-03T05:06:38;13.07;;;6.57;;
18387;SDS011;9320;50.256;19.026;2022-09-03T05:09:07;16.27;;;6.40;;
18387;SDS011;9320;50.256;19.026;2022-09-03T05:11:35;11.50;;;6.47;;
18387;SDS011;9320;50.256;19.026;2022-09-03T05:14:03;9.17;;;5.97;;
18387;SDS011;9320;50.256;19.026;2022-09-03T05:16:32;9.10;;;6.10;;
18387;SDS011;9320;50.256;19.026;2022-09-03T05:19:00;11.20;;;6.43;;
18387;SDS011;9320;50.256;19.026;2022-09-03T05:21:28;9.63;;;6.07;;
18387;SDS011;9320;50.256;19.026;2022-09-03T05:23:58;13.00;;;6.40;;
18387;SDS011;9320;50.256;19.026;2022-09-03T05:26:28;9.63;;;6.00;;
18387;SDS011;9320;50.256;19.026;2022-09-03T05:28:58;11.63;;;6.37;;
18387;SDS011;9320;50.256;19.026;2022-09-03T05:31:28;9.73;;;5.77;;
18387;SDS011;9320;50.256;19.026;2022-09-03T05:33:58;9.07;;;6.27;;
18387;SDS011;9320;50.256;19.026;2022-09-03T05:36:29;13.07;;;6.87;;
18387;SDS011;9320;50.256;19.026;2022-09-03T05:38:59;11.40;;;6.40;;
18387;SDS011;9320;50.256;19.026;2022-09-03T05:41:29;11.33;;;6.00;;
18387;SDS011;9320;50.256;19.026;2022-09-03T05:43:59;10.20;;;5.67;;
18387;SDS011;9320;50.256;19.026;2022-09-03T05:46:28;9.80;;;6.00;;
18387;SDS011;9320;50.256;19.026;2022-09-03T05:48:58;14.00;;;5.93;;
18387;SDS011;9320;50.256;19.026;2022-09-03T05:51:27;13.07;;;5.87;;
18387;SDS011;9320;50.256;19.026;2022-09-03T05:53:56;12.13;;;6.30;;
18387;SDS011;9320;50.256;19.026;2022-09-03T05:56:25;9.77;;;6.07;;
18387;SDS011;9320;50.256;19.026;2022-09-03T05:58:58;10.20;;;6.33;;
18387;SDS011;9320;50.256;19.026;2022-09-03T06:01:28;9.63;;;5.70;;
18387;SDS011;9320;50.256;19.026;2022-09-03T06:03:58;12.77;;;6.47;;
18387;SDS011;9320;50.256;19.026;2022-09-03T06:06:28;11.23;;;6.97;;
18387;SDS011;9320;50.256;19.026;2022-09-03T06:08:57;11.30;;;6.63;;
18387;SDS011;9320;50.256;19.026;2022-09-03T06:11:28;8.80;;;6.40;;
18387;SDS011;9320;50.256;19.026;2022-09-03T06:14:00;11.60;;;6.73;;
18387;SDS011;9320;50.256;19.026;2022-09-03T06:16:30;9.53;;;6.40;;
18387;SDS011;9320;50.256;19.026;2022-09-03T06:18:59;12.30;;;6.73;;
18387;SDS011;9320;50.256;19.026;2022-09-03T06:21:28;15.20;;;7.23;;
18387;SDS011;9320;50.256;19.026;2022-09-03T06:23:56;16.40;;;8.03;;
18387;SDS011;9320;50.256;19.026;2022-09-03T06:26:25;10.53;;;7.23;;
18387;SDS011;9320;50.256;19.026;2022-09-03T06:28:55;14.97;;;6.97;;
18387;SDS011;9320;50.256;19.026;2022-09-03T06:31:26;16.37;;;6.97;;
18387;SDS011;9320;50.256;19.026;2022-09-03T06:33:54;10.97;;;6.33;;
18387;SDS011;9320;50.256;19.026;2022-09-03T06:36:29;8.90;;;6.13;;
18387;SDS011;9320;50.256;19.026;2022-09-03T06:38:57;10.17;;;6.47;;
18387;SDS011;9320;50.256;19.026;2022-09-03T06:41:26;9.13;;;6.33;;
18387;SDS011;9320;50.256;19.026;2022-09-03T06:44:01;9.17;;;5.90;;
18387;SDS011;9320;50.256;19.026;2022-09-03T06:46:32;9.83;;;6.00;;
18387;SDS011;9320;50.256;19.026;2022-09-03T06:49:04;9.60;;;6.20;;
18387;SDS011;9320;50.256;19.026;2022-09-03T06:51:33;11.40;;;6.77;;
18387;SDS011;9320;50.256;19.026;2022-09-03T06:54:03;10.13;;;6.60;;
18387;SDS011;9320;50.256;19.026;2022-09-03T06:56:33;10.10;;;5.70;;
18387;SDS011;9320;50.256;19.026;2022-09-03T06:59:06;10.23;;;6.00;;
18387;SDS011;9320;50.256;19.026;2022-09-03T07:01:37;10.83;;;6.20;;
18387;SDS011;9320;50.256;19.026;2022-09-03T07:04:10;12.95;;;7.07;;
18387;SDS011;9320;50.256;19.026;2022-09-03T07:06:39;10.20;;;6.67;;
18387;SDS011;9320;50.256;19.026;2022-09-03T07:09:09;13.67;;;5.87;;
18387;SDS011;9320;50.256;19.026;2022-09-03T07:11:38;7.68;;;5.90;;
18387;SDS011;9320;50.256;19.026;2022-09-03T07:14:14;10.18;;;5.80;;
18387;SDS011;9320;50.256;19.026;2022-09-03T07:16:45;10.10;;;5.90;;
18387;SDS011;9320;50.256;19.026;2022-09-03T07:19:14;10.40;;;6.45;;
18387;SDS011;9320;50.256;19.026;2022-09-03T07:21:43;9.45;;;5.60;;
18387;SDS011;9320;50.256;19.026;2022-09-03T07:24:15;8.00;;;5.40;;
18387;SDS011;9320;50.256;19.026;2022-09-03T07:26:44;15.07;;;5.75;;
18387;SDS011;9320;50.256;19.026;2022-09-03T07:29:14;8.40;;;5.63;;
18387;SDS011;9320;50.256;19.026;2022-09-03T07:31:47;9.18;;;5.47;;
18387;SDS011;9320;50.256;19.026;2022-09-03T07:34:19;9.07;;;5.40;;
18387;SDS011;9320;50.256;19.026;2022-09-03T07:36:50;6.55;;;5.28;;
18387;SDS011;9320;50.256;19.026;2022-09-03T07:39:19;7.45;;;5.20;;
18387;SDS011;9320;50.256;19.026;2022-09-03T07:41:47;8.45;;;6.15;;
18387;SDS011;9320;50.256;19.026;2022-09-03T07:44:16;7.00;;;5.55;;
18387;SDS011;9320;50.256;19.026;2022-09-03T07:46:45;5.95;;;5.10;;
18387;SDS011;9320;50.256;19.026;2022-09-03T07:49:17;8.50;;;5.15;;
18387;SDS011;9320;50.256;19.026;2022-09-03T07:51:47;5.82;;;5.15;;
18387;SDS011;9320;50.256;19.026;2022-09-03T07:54:18;5.32;;;4.50;;
18387;SDS011;9320;50.256;19.026;2022-09-03T07:56:47;5.38;;;4.60;;
18387;SDS011;9320;50.256;19.026;2022-09-03T07:59:15;6.40;;;4.50;;
18387;SDS011;9320;50.256;19.026;2022-09-03T08:01:43;9.88;;;4.72;;
18387;SDS011;9320;50.256;19.026;2022-09-03T08:04:12;6.13;;;4.60;;
18387;SDS011;9320;50.256;19.026;2022-09-03T08:06:40;4.80;;;4.30;;
18387;SDS011;9320;50.256;19.026;2022-09-03T08:09:09;5.43;;;4.65;;
18387;SDS011;9320;50.256;19.026;2022-09-03T08:11:39;7.15;;;4.85;;
18387;SDS011;9320;50.256;19.026;2022-09-03T08:14:09;5.07;;;4.50;;
18387;SDS011;9320;50.256;19.026;2022-09-03T08:16:39;5.18;;;4.63;;
18387;SDS011;9320;50.256;19.026;2022-09-03T08:19:08;5.28;;;4.78;;
18387;SDS011;9320;50.256;19.026;2022-09-03T08:21:39;4.82;;;4.38;;
18387;SDS011;9320;50.256;19.026;2022-09-03T08:24:08;6.70;;;4.80;;
18387;SDS011;9320;50.256;19.026;2022-09-03T08:26:37;8.20;;;5.10;;
18387;SDS011;9320;50.256;19.026;2022-09-03T08:29:07;8.55;;;5.40;;
18387;SDS011;9320;50.256;19.026;2022-09-03T08:31:35;6.80;;;4.68;;
18387;SDS011;9320;50.256;19.026;2022-09-03T08:34:05;6.03;;;5.05;;
18387;SDS011;9320;50.256;19.026;2022-09-03T08:36:34;5.78;;;5.18;;
18387;SDS011;9320;50.256;19.026;2022-09-03T08:39:05;5.75;;;5.20;;
18387;SDS011;9320;50.256;19.026;2022-09-03T08:41:40;8.00;;;5.05;;
18387;SDS011;9320;50.256;19.026;2022-09-03T08:44:29;8.40;;;4.78;;
18387;SDS011;9320;50.256;19.026;2022-09-03T08:47:04;5.80;;;4.72;;
18387;SDS011;9320;50.256;19.026;2022-09-03T08:49:38;7.05;;;5.03;;
18387;SDS011;9320;50.256;19.026;2022-09-03T08:52:15;8.60;;;5.10;;
18387;SDS011;9320;50.256;19.026;2022-09-03T08:54:50;9.80;;;5.65;;
18387;SDS011;9320;50.256;19.026;2022-09-03T08:57:23;8.80;;;4.72;;
18387;SDS011;9320;50.256;19.026;2022-09-03T08:59:53;5.70;;;5.10;;
18387;SDS011;9320;50.256;19.026;2022-09-03T09:02:24;6.05;;;5.25;;
18387;SDS011;9320;50.256;19.026;2022-09-03T09:05:02;5.82;;;4.60;;
18387;SDS011;9320;50.256;19.026;2022-09-03T09:07:40;6.63;;;4.95;;
18387;SDS011;9320;50.256;19.026;2022-09-03T09:10:18;5.57;;;4.90;;
18387;SDS011;9320;50.256;19.026;2022-09-03T09:12:55;5.22;;;4.72;;
18387;SDS011;9320;50.256;19.026;2022-09-03T09:15:37;7.38;;;4.70;;
18387;SDS011;9320;50.256;19.026;2022-09-03T09:18:17;13.52;;;5.30;;
18387;SDS011;9320;50.256;19.026;2022-09-03T09:20:53;6.13;;;4.95;;
18387;SDS011;9320;50.256;19.026;2022-09-03T09:23:26;7.57;;;5.18;;
18387;SDS011;9320;50.256;19.026;2022-09-03T09:25:59;5.63;;;4.90;;
18387;SDS011;9320;50.256;19.026;2022-09-03T09:28:31;8.13;;;5.22;;
18387;SDS011;9320;50.256;19.026;2022-09-03T09:31:02;6.22;;;4.93;;
18387;SDS011;9320;50.256;19.026;2022-09-03T09:33:33;5.68;;;5.00;;
18387;SDS011;9320;50.256;19.026;2022-09-03T09:36:02;20.27;;;5.50;;
18387;SDS011;9320;50.256;19.026;2022-09-03T09:38:34;6.10;;;5.13;;
18387;SDS011;9320;50.256;19.026;2022-09-03T09:41:08;5.68;;;5.10;;
18387;SDS011;9320;50.256;19.026;2022-09-03T09:43:38;6.20;;;4.90;;
18387;SDS011;9320;50.256;19.026;2022-09-03T09:46:08;5.47;;;4.97;;
18387;SDS011;9320;50.256;19.026;2022-09-03T09:48:44;6.68;;;5.07;;
18387;SDS011;9320;50.256;19.026;2022-09-03T09:51:18;6.38;;;5.00;;
18387;SDS011;9320;50.256;19.026;2022-09-03T09:53:48;6.78;;;4.65;;
18387;SDS011;9320;50.256;19.026;2022-09-03T09:56:28;6.30;;;5.28;;
18387;SDS011;9320;50.256;19.026;2022-09-03T09:59:03;7.72;;;5.20;;
18387;SDS011;9320;50.256;19.026;2022-09-03T10:01:33;7.30;;;5.10;;
18387;SDS011;9320;50.256;19.026;2022-09-03T10:04:07;5.95;;;5.35;;
18387;SDS011;9320;50.256;19.026;2022-09-03T10:06:37;6.68;;;4.75;;
18387;SDS011;9320;50.256;19.026;2022-09-03T10:09:23;8.48;;;4.97;;
18387;SDS011;9320;50.256;19.026;2022-09-03T10:12:01;5.78;;;4.97;;
18387;SDS011;9320;50.256;19.026;2022-09-03T10:14:37;5.63;;;4.90;;
18387;SDS011;9320;50.256;19.026;2022-09-03T10:17:10;5.57;;;5.07;;
18387;SDS011;9320;50.256;19.026;2022-09-03T10:19:47;5.60;;;5.10;;
18387;SDS011;9320;50.256;19.026;2022-09-03T10:22:37;6.95;;;5.07;;
18387;SDS011;9320;50.256;19.026;2022-09-03T10:25:22;5.95;;;5.35;;
18387;SDS011;9320;50.256;19.026;2022-09-03T10:27:56;5.55;;;4.78;;
18387;SDS011;9320;50.256;19.026;2022-09-03T10:30:27;5.50;;;5.00;;
18387;SDS011;9320;50.256;19.026;2022-09-03T10:33:07;6.50;;;4.93;;
18387;SDS011;9320;50.256;19.026;2022-09-03T10:35:42;7.15;;;5.28;;
18387;SDS011;9320;50.256;19.026;2022-09-03T10:38:15;5.80;;;5.30;;
18387;SDS011;9320;50.256;19.026;2022-09-03T10:40:49;5.93;;;4.72;;
18387;SDS011;9320;50.256;19.026;2022-09-03T10:43:25;5.20;;;4.70;;
18387;SDS011;9320;50.256;19.026;2022-09-03T10:46:18;5.35;;;4.63;;
18387;SDS011;9320;50.256;19.026;2022-09-03T10:49:00;7.13;;;5.13;;
18387;SDS011;9320;50.256;19.026;2022-09-03T10:51:42;5.43;;;4.93;;
18387;SDS011;9320;50.256;19.026;2022-09-03T10:54:21;6.10;;;5.18;;
18387;SDS011;9320;50.256;19.026;2022-09-03T10:57:06;6.88;;;5.10;;
18387;SDS011;9320;50.256;19.026;2022-09-03T10:59:45;9.18;;;5.18;;
18387;SDS011;9320;50.256;19.026;2022-09-03T11:02:27;6.43;;;4.90;;
18387;SDS011;9320;50.256;19.026;2022-09-03T11:05:22;6.07;;;4.90;;
18387;SDS011;9320;50.256;19.026;2022-09-03T11:07:57;6.80;;;5.28;;
18387;SDS011;9320;50.256;19.026;2022-09-03T11:10:28;6.03;;;5.28;;
18387;SDS011;9320;50.256;19.026;2022-09-03T11:13:01;5.63;;;5.05;;
18387;SDS011;9320;50.256;19.026;2022-09-03T11:15:35;8.27;;;4.85;;
18387;SDS011;9320;50.256;19.026;2022-09-03T11:18:10;6.22;;;5.22;;
18387;SDS011;9320;50.256;19.026;2022-09-03T11:20:43;5.60;;;5.05;;
18387;SDS011;9320;50.256;19.026;2022-09-03T11:23:12;6.32;;;5.13;;
18387;SDS011;9320;50.256;19.026;2022-09-03T11:25:44;5.80;;;5.28;;
18387;SDS011;9320;50.256;19.026;2022-09-03T11:28:19;5.32;;;4.82;;
18387;SDS011;9320;50.256;19.026;2022-09-03T11:31:04;6.80;;;4.93;;
18387;SDS011;9320;50.256;19.026;2022-09-03T11:33:44;5.40;;;4.85;;
18387;SDS011;9320;50.256;19.026;2022-09-03T11:36:22;5.82;;;5.00;;
18387;SDS011;9320;50.256;19.026;2022-09-03T11:38:55;4.90;;;4.40;;
18387;SDS011;9320;50.256;19.026;2022-09-03T11:41:23;9.10;;;4.88;;
18387;SDS011;9320;50.256;19.026;2022-09-03T11:43:53;6.43;;;5.10;;
18387;SDS011;9320;50.256;19.026;2022-09-03T11:46:29;5.68;;;4.95;;
18387;SDS011;9320;50.256;19.026;2022-09-03T11:49:08;5.38;;;4.63;;
18387;SDS011;9320;50.256;19.026;2022-09-03T11:51:39;5.55;;;4.80;;
18387;SDS011;9320;50.256;19.026;2022-09-03T11:54:22;7.72;;;5.07;;
18387;SDS011;9320;50.256;19.026;2022-09-03T11:57:03;6.00;;;5.20;;
18387;SDS011;9320;50.256;19.026;2022-09-03T11:59:36;9.00;;;5.50;;
18387;SDS011;9320;50.256;19.026;2022-09-03T12:02:11;6.43;;;5.65;;
18387;SDS011;9320;50.256;19.026;2022-09-03T12:04:56;7.60;;;5.88;;
18387;SDS011;9320;50.256;19.026;2022-09-03T12:07:43;9.43;;;5.68;;
18387;SDS011;9320;50.256;19.026;2022-09-03T12:10:36;7.93;;;5.53;;
18387;SDS011;9320;50.256;19.026;2022-09-03T12:13:17;6.85;;;5.63;;
18387;SDS011;9320;50.256;19.026;2022-09-03T12:16:14;10.35;;;6.03;;
18387;SDS011;9320;50.256;19.026;2022-09-03T12:19:06;6.40;;;5.63;;
18387;SDS011;9320;50.256;19.026;2022-09-03T12:21:39;7.07;;;6.05;;
18387;SDS011;9320;50.256;19.026;2022-09-03T12:24:09;6.70;;;6.00;;
18387;SDS011;9320;50.256;19.026;2022-09-03T12:26:39;7.50;;;5.78;;
18387;SDS011;9320;50.256;19.026;2022-09-03T12:29:19;7.10;;;5.70;;
18387;SDS011;9320;50.256;19.026;2022-09-03T12:31:53;6.40;;;5.80;;
18387;SDS011;9320;50.256;19.026;2022-09-03T12:34:23;6.00;;;5.40;;
18387;SDS011;9320;50.256;19.026;2022-09-03T12:36:53;7.72;;;6.10;;
18387;SDS011;9320;50.256;19.026;2022-09-03T12:39:21;7.80;;;5.70;;
18387;SDS011;9320;50.256;19.026;2022-09-03T12:42:11;9.32;;;5.55;;
18387;SDS011;9320;50.256;19.026;2022-09-03T12:44:44;6.13;;;5.53;;
18387;SDS011;9320;50.256;19.026;2022-09-03T12:47:13;6.28;;;5.53;;
18387;SDS011;9320;50.256;19.026;2022-09-03T12:50:06;11.88;;;5.63;;
18387;SDS011;9320;50.256;19.026;2022-09-03T12:52:37;7.22;;;5.85;;
18387;SDS011;9320;50.256;19.026;2022-09-03T12:55:15;6.97;;;5.85;;
18387;SDS011;9320;50.256;19.026;2022-09-03T12:57:54;6.63;;;5.68;;
18387;SDS011;9320;50.256;19.026;2022-09-03T13:00:28;6.15;;;5.38;;
18387;SDS011;9320;50.256;19.026;2022-09-03T13:02:59;6.00;;;5.30;;
18387;SDS011;9320;50.256;19.026;2022-09-03T13:05:35;7.50;;;5.88;;
18387;SDS011;9320;50.256;19.026;2022-09-03T13:08:12;6.30;;;5.70;;
18387;SDS011;9320;50.256;19.026;2022-09-03T13:10:48;6.13;;;5.53;;
18387;SDS011;9320;50.256;19.026;2022-09-03T13:13:23;7.65;;;5.88;;
18387;SDS011;9320;50.256;19.026;2022-09-03T13:15:59;6.45;;;5.38;;
18387;SDS011;9320;50.256;19.026;2022-09-03T13:18:57;7.82;;;5.50;;
18387;SDS011;9320;50.256;19.026;2022-09-03T13:21:38;6.63;;;5.50;;
18387;SDS011;9320;50.256;19.026;2022-09-03T13:24:21;7.10;;;5.93;;
18387;SDS011;9320;50.256;19.026;2022-09-03T13:27:02;5.90;;;5.30;;
18387;SDS011;9320;50.256;19.026;2022-09-03T13:29:44;8.23;;;5.80;;
18387;SDS011;9320;50.256;19.026;2022-09-03T13:32:25;7.10;;;5.88;;
18387;SDS011;9320;50.256;19.026;2022-09-03T13:35:03;6.15;;;5.55;;
18387;SDS011;9320;50.256;19.026;2022-09-03T13:37:38;7.47;;;5.22;;
18387;SDS011;9320;50.256;19.026;2022-09-03T13:40:12;8.10;;;5.68;;
18387;SDS011;9320;50.256;19.026;2022-09-03T13:42:44;6.47;;;5.70;;
18387;SDS011;9320;50.256;19.026;2022-09-03T13:45:25;7.32;;;5.90;;
18387;SDS011;9320;50.256;19.026;2022-09-03T13:47:58;7.20;;;5.50;;
18387;SDS011;9320;50.256;19.026;2022-09-03T13:50:52;5.82;;;5.22;;
18387;SDS011;9320;50.256;19.026;2022-09-03T13:53:31;6.03;;;5.43;;
18387;SDS011;9320;50.256;19.026;2022-09-03T13:56:13;6.15;;;5.50;;
18387;SDS011;9320;50.256;19.026;2022-09-03T13:58:47;6.00;;;5.40;;
18387;SDS011;9320;50.256;19.026;2022-09-03T14:01:22;9.25;;;6.00;;
18387;SDS011;9320;50.256;19.026;2022-09-03T14:03:55;9.77;;;5.78;;
18387;SDS011;9320;50.256;19.026;2022-09-03T14:06:32;6.30;;;5.70;;
18387;SDS011;9320;50.256;19.026;2022-09-03T14:09:11;6.07;;;5.40;;
18387;SDS011;9320;50.256;19.026;2022-09-03T14:11:47;5.90;;;5.30;;
18387;SDS011;9320;50.256;19.026;2022-09-03T14:14:28;5.90;;;5.35;;
18387;SDS011;9320;50.256;19.026;2022-09-03T14:17:05;9.05;;;5.82;;
18387;SDS011;9320;50.256;19.026;2022-09-03T14:19:42;5.88;;;5.00;;
18387;SDS011;9320;50.256;19.026;2022-09-03T14:22:16;6.65;;;5.78;;
18387;SDS011;9320;50.256;19.026;2022-09-03T14:24:50;7.07;;;5.38;;
18387;SDS011;9320;50.256;19.026;2022-09-03T14:27:22;6.35;;;5.07;;
18387;SDS011;9320;50.256;19.026;2022-09-03T14:29:53;8.88;;;5.50;;
18387;SDS011;9320;50.256;19.026;2022-09-03T14:32:27;6.65;;;5.18;;
18387;SDS011;9320;50.256;19.026;2022-09-03T14:35:13;7.63;;;5.55;;
18387;SDS011;9320;50.256;19.026;2022-09-03T14:37:57;7.70;;;5.40;;
18387;SDS011;9320;50.256;19.026;2022-09-03T14:40:41;8.43;;;5.30;;
18387;SDS011;9320;50.256;19.026;2022-09-03T14:43:15;9.82;;;5.68;;
18387;SDS011;9320;50.256;19.026;2022-09-03T14:46:02;7.80;;;5.65;;
18387;SDS011;9320;50.256;19.026;2022-09-03T14:48:45;9.27;;;6.43;;
18387;SDS011;9320;50.256;19.026;2022-09-03T14:51:46;6.00;;;5.40;;
18387;SDS011;9320;50.256;19.026;2022-09-03T14:54:35;7.60;;;5.47;;
18387;SDS011;9320;50.256;19.026;2022-09-03T14:57:34;8.15;;;5.70;;
18387;SDS011;9320;50.256;19.026;2022-09-03T15:00:13;7.75;;;6.15;;
18387;SDS011;9320;50.256;19.026;2022-09-03T15:02:52;6.88;;;5.47;;
18387;SDS011;9320;50.256;19.026;2022-09-03T15:05:41;5.93;;;5.18;;
18387;SDS011;9320;50.256;19.026;2022-09-03T15:08:20;6.20;;;5.00;;
18387;SDS011;9320;50.256;19.026;2022-09-03T15:11:00;6.57;;;5.28;;
18387;SDS011;9320;50.256;19.026;2022-09-03T15:13:32;5.80;;;5.10;;
18387;SDS011;9320;50.256;19.026;2022-09-03T15:16:12;6.20;;;5.60;;
18387;SDS011;9320;50.256;19.026;2022-09-03T15:18:58;6.13;;;5.53;;
18387;SDS011;9320;50.256;19.026;2022-09-03T15:21:41;6.63;;;5.15;;
18387;SDS011;9320;50.256;19.026;2022-09-03T15:24:31;8.50;;;6.00;;
18387;SDS011;9320;50.256;19.026;2022-09-03T15:27:16;7.07;;;5.60;;